Time;durP1;ratioP1;P1;durP2;ratioP2;P2;SDS_P1;SDS_P2;PMS_P1;PMS_P2;Temp;Humidity;BMP_temperature;BMP_pressure;BME280_temperature;BME280_humidity;BME280_pressure;Samples;Min_cycle;Max_cycle;Signal;HPM_P1;HPM_P2
2023/09/23 00:01:27;;;;;;;4.35;1.38;;;;;;;;;;6252232;28;20366;-76
2023/09/23 00:04:33;;;;;;;2.97;1.17;;;;;;;;;;6255711;28;20065;-75
2023/09/23 00:07:35;;;;;;;3.67;1.48;;;;;;;;;;6250374;28;20045;-75
2023/09/23 00:10:38;;;;;;;3.40;1.63;;;;;;;;;;6256670;28;20053;-76
2023/09/23 00:13:40;;;;;;;8.07;1.60;;;;;;;;;;6254668;28;20356;-77
2023/09/23 00:16:42;;;;;;;3.15;1.60;;;;;;;;;;6266865;28;20072;-75
2023/09/23 00:19:46;;;;;;;3.35;1.50;;;;;;;;;;6251629;28;20372;-76
2023/09/23 00:22:48;;;;;;;3.30;1.35;;;;;;;;;;6251062;28;20057;-76
2023/09/23 00:25:50;;;;;;;2.15;1.25;;;;;;;;;;6263767;28;20052;-76
2023/09/23 00:28:51;;;;;;;3.25;1.77;;;;;;;;;;6276783;28;20044;-76
2023/09/23 00:31:54;;;;;;;6.18;1.35;;;;;;;;;;6274026;28;20053;-77
2023/09/23 00:34:57;;;;;;;4.05;1.77;;;;;;;;;;6263160;28;20281;-76
2023/09/23 00:37:59;;;;;;;2.10;1.27;;;;;;;;;;6265295;28;20088;-76
2023/09/23 00:41:03;;;;;;;3.58;1.50;;;;;;;;;;6265608;28;20057;-76
2023/09/23 00:44:06;;;;;;;4.55;1.52;;;;;;;;;;6260154;28;20639;-76
2023/09/23 00:47:09;;;;;;;2.72;1.30;;;;;;;;;;6252737;28;20061;-77
2023/09/23 00:50:18;;;;;;;2.50;1.33;;;;;;;;;;6253832;28;20057;-76
2023/09/23 00:53:21;;;;;;;5.15;1.95;;;;;;;;;;6249799;28;20041;-76
2023/09/23 00:56:24;;;;;;;3.28;1.27;;;;;;;;;;6261099;28;20272;-74
2023/09/23 00:59:27;;;;;;;4.20;1.77;;;;;;;;;;6274427;28;20079;-75
2023/09/23 01:02:29;;;;;;;4.78;1.80;;;;;;;;;;6275384;28;20049;-74
2023/09/23 01:05:34;;;;;;;4.53;1.70;;;;;;;;;;6275921;28;20061;-75
2023/09/23 01:08:41;;;;;;;3.78;1.75;;;;;;;;;;6274994;28;20048;-75
2023/09/23 01:11:45;;;;;;;2.72;1.58;;;;;;;;;;6257689;28;20042;-75
2023/09/23 01:14:47;;;;;;;2.35;1.30;;;;;;;;;;6271030;28;20052;-76
2023/09/23 01:17:53;;;;;;;4.18;2.22;;;;;;;;;;6278891;28;20045;-77
2023/09/23 01:20:59;;;;;;;3.25;2.00;;;;;;;;;;6274637;28;20049;-76
2023/09/23 01:24:03;;;;;;;3.53;1.45;;;;;;;;;;6277808;28;20282;-75
2023/09/23 01:27:06;;;;;;;4.25;1.42;;;;;;;;;;6277416;28;20087;-75
2023/09/23 01:30:09;;;;;;;3.05;1.30;;;;;;;;;;6272896;28;20048;-75
2023/09/23 01:33:12;;;;;;;2.50;1.33;;;;;;;;;;6274944;28;20063;-75
2023/09/23 01:36:14;;;;;;;2.67;1.52;;;;;;;;;;6276783;28;20099;-75
2023/09/23 01:39:17;;;;;;;4.03;1.10;;;;;;;;;;6276510;28;20060;-76
2023/09/23 01:42:20;;;;;;;2.75;1.20;;;;;;;;;;6272978;28;20105;-75
2023/09/23 01:45:23;;;;;;;3.95;1.85;;;;;;;;;;6272413;28;20049;-74
2023/09/23 01:48:28;;;;;;;3.45;1.42;;;;;;;;;;6274102;28;20044;-75
2023/09/23 01:51:31;;;;;;;3.50;1.33;;;;;;;;;;6253782;28;20364;-74
2023/09/23 01:54:34;;;;;;;7.57;1.52;;;;;;;;;;6251452;28;20057;-75
2023/09/23 01:57:36;;;;;;;4.05;2.05;;;;;;;;;;6250016;28;26190;-75
2023/09/23 02:00:38;;;;;;;3.72;1.42;;;;;;;;;;6252282;28;20069;-75
2023/09/23 02:03:41;;;;;;;2.53;1.23;;;;;;;;;;6271072;28;20047;-75
2023/09/23 02:06:43;;;;;;;5.25;1.85;;;;;;;;;;6254499;28;20119;-76
2023/09/23 02:09:46;;;;;;;2.42;1.17;;;;;;;;;;6277610;28;20242;-75
2023/09/23 02:12:48;;;;;;;5.90;1.63;;;;;;;;;;6282337;28;20049;-75
2023/09/23 02:15:52;;;;;;;4.45;1.35;;;;;;;;;;6276438;28;20045;-74
2023/09/23 02:18:54;;;;;;;2.60;1.38;;;;;;;;;;6257235;28;20049;-75
2023/09/23 02:21:56;;;;;;;5.72;2.00;;;;;;;;;;6271283;28;20065;-75
2023/09/23 02:24:59;;;;;;;3.60;2.00;;;;;;;;;;6258833;28;20064;-75
2023/09/23 02:28:01;;;;;;;4.28;1.20;;;;;;;;;;6253670;28;20049;-75
2023/09/23 02:31:03;;;;;;;4.35;1.40;;;;;;;;;;6257820;28;20108;-75
2023/09/23 02:34:05;;;;;;;3.78;1.10;;;;;;;;;;6256378;28;20360;-76
2023/09/23 02:37:07;;;;;;;3.53;1.35;;;;;;;;;;6255925;28;20057;-74
2023/09/23 02:40:14;;;;;;;4.32;1.58;;;;;;;;;;6258662;28;20061;-75
2023/09/23 02:43:18;;;;;;;4.82;1.25;;;;;;;;;;6257767;28;20322;-75
2023/09/23 02:46:20;;;;;;;2.38;1.13;;;;;;;;;;6252524;28;20053;-74
2023/09/23 02:49:22;;;;;;;3.22;1.30;;;;;;;;;;6253033;28;20103;-75
2023/09/23 02:52:24;;;;;;;2.35;1.23;;;;;;;;;;6255336;28;20099;-75
2023/09/23 02:55:27;;;;;;;7.20;1.20;;;;;;;;;;6255461;28;20041;-75
2023/09/23 02:58:29;;;;;;;3.05;0.95;;;;;;;;;;6254858;28;20072;-75
2023/09/23 03:01:31;;;;;;;1.95;1.00;;;;;;;;;;6256555;28;20322;-75
2023/09/23 03:04:33;;;;;;;2.67;0.73;;;;;;;;;;6254206;28;20099;-74
2023/09/23 03:07:35;;;;;;;1.95;0.50;;;;;;;;;;6253795;28;20187;-75
2023/09/23 03:10:40;;;;;;;1.05;0.50;;;;;;;;;;6257283;28;20049;-75
2023/09/23 03:13:42;;;;;;;1.52;0.68;;;;;;;;;;6254816;28;20116;-75
2023/09/23 03:16:48;;;;;;;1.83;0.52;;;;;;;;;;6278101;28;20051;-75
2023/09/23 03:19:51;;;;;;;2.10;0.50;;;;;;;;;;6281397;28;20373;-77
2023/09/23 03:22:54;;;;;;;1.40;0.50;;;;;;;;;;6279685;28;20314;-75
2023/09/23 03:25:57;;;;;;;1.60;0.50;;;;;;;;;;6278935;28;20080;-75
2023/09/23 03:28:59;;;;;;;0.98;0.40;;;;;;;;;;6280868;28;20049;-75
2023/09/23 03:32:01;;;;;;;0.63;0.28;;;;;;;;;;6278297;28;20049;-75
2023/09/23 03:35:02;;;;;;;0.85;0.30;;;;;;;;;;6278580;28;20048;-75
2023/09/23 03:38:04;;;;;;;0.85;0.20;;;;;;;;;;6278443;28;20534;-75
2023/09/23 03:41:11;;;;;;;1.55;0.32;;;;;;;;;;6279961;28;20052;-75
2023/09/23 03:44:14;;;;;;;1.48;0.30;;;;;;;;;;6278018;28;20057;-75
2023/09/23 03:47:16;;;;;;;1.17;0.50;;;;;;;;;;6280506;28;20052;-75
2023/09/23 03:50:18;;;;;;;0.40;0.17;;;;;;;;;;6270195;28;20241;-75
2023/09/23 03:53:21;;;;;;;0.57;0.13;;;;;;;;;;6278905;28;20365;-75
2023/09/23 03:56:27;;;;;;;1.30;0.35;;;;;;;;;;6262237;28;20084;-75
2023/09/23 03:59:30;;;;;;;1.08;0.32;;;;;;;;;;6272228;28;20052;-75
2023/09/23 04:02:35;;;;;;;1.00;0.30;;;;;;;;;;6259471;28;20057;-76
2023/09/23 04:05:37;;;;;;;0.28;0.10;;;;;;;;;;6253547;28;20064;-75
2023/09/23 04:08:38;;;;;;;1.30;0.10;;;;;;;;;;6254237;28;20060;-75
2023/09/23 04:11:41;;;;;;;0.47;0.20;;;;;;;;;;6255354;28;20045;-75
2023/09/23 04:14:43;;;;;;;2.17;0.30;;;;;;;;;;6253193;28;20338;-76
2023/09/23 04:17:45;;;;;;;1.52;0.20;;;;;;;;;;6253787;28;20353;-75
2023/09/23 04:20:50;;;;;;;0.38;0.15;;;;;;;;;;6254245;28;20392;-75
2023/09/23 04:23:52;;;;;;;0.60;0.25;;;;;;;;;;6258657;28;20292;-75
2023/09/23 04:26:55;;;;;;;0.40;0.13;;;;;;;;;;6256021;28;20060;-75
2023/09/23 04:29:57;;;;;;;0.20;0.13;;;;;;;;;;6253668;28;20061;-76
2023/09/23 04:33:00;;;;;;;0.10;0.05;;;;;;;;;;6252539;28;20058;-76
2023/09/23 04:36:02;;;;;;;1.20;0.10;;;;;;;;;;6253161;28;20053;-75
2023/09/23 04:39:06;;;;;;;1.90;0.20;;;;;;;;;;6254676;28;20053;-75
2023/09/23 04:42:11;;;;;;;0.40;0.20;;;;;;;;;;6252983;28;20329;-75
2023/09/23 04:45:13;;;;;;;1.38;0.40;;;;;;;;;;6253395;28;20053;-75
2023/09/23 04:48:17;;;;;;;1.52;0.20;;;;;;;;;;6252836;28;20075;-76
2023/09/23 04:51:19;;;;;;;0.35;0.20;;;;;;;;;;6266396;28;20052;-75
2023/09/23 04:54:22;;;;;;;1.17;0.28;;;;;;;;;;6246753;28;20041;-75
2023/09/23 04:57:25;;;;;;;0.47;0.20;;;;;;;;;;6253709;28;20053;-75
2023/09/23 05:00:32;;;;;;;0.95;0.40;;;;;;;;;;6245030;28;20049;-75
2023/09/23 05:03:36;;;;;;;0.57;0.20;;;;;;;;;;6250263;28;20125;-75
2023/09/23 05:06:38;;;;;;;1.58;0.20;;;;;;;;;;6250224;28;20041;-75
2023/09/23 05:09:40;;;;;;;1.55;0.30;;;;;;;;;;6251566;28;20056;-75
2023/09/23 05:12:45;;;;;;;1.02;0.20;;;;;;;;;;6251216;28;20211;-75
2023/09/23 05:15:47;;;;;;;0.75;0.40;;;;;;;;;;6265918;28;20063;-75
2023/09/23 05:18:49;;;;;;;0.77;0.25;;;;;;;;;;6272684;28;20112;-75
2023/09/23 05:21:51;;;;;;;1.67;0.38;;;;;;;;;;6278036;28;20056;-75
2023/09/23 05:24:56;;;;;;;0.98;0.20;;;;;;;;;;6277010;28;20325;-75
2023/09/23 05:28:02;;;;;;;1.17;0.30;;;;;;;;;;6274909;28;20052;-75
2023/09/23 05:31:05;;;;;;;1.48;0.30;;;;;;;;;;6277354;28;20060;-76
2023/09/23 05:34:07;;;;;;;0.45;0.20;;;;;;;;;;6252183;28;20219;-75
2023/09/23 05:37:12;;;;;;;0.77;0.20;;;;;;;;;;6251665;28;20053;-75
2023/09/23 05:40:27;;;;;;;1.33;0.40;;;;;;;;;;6250807;28;20326;-75
2023/09/23 05:43:30;;;;;;;0.40;0.10;;;;;;;;;;6254853;28;20057;-75
2023/09/23 05:46:32;;;;;;;0.63;0.30;;;;;;;;;;6256875;28;20049;-75
2023/09/23 05:49:33;;;;;;;1.52;0.20;;;;;;;;;;6257337;28;20063;-75
2023/09/23 05:52:36;;;;;;;1.02;0.30;;;;;;;;;;6256817;28;21176;-75
2023/09/23 05:55:38;;;;;;;1.25;0.50;;;;;;;;;;6255251;28;20277;-76
2023/09/23 05:58:41;;;;;;;0.88;0.40;;;;;;;;;;6257534;28;20053;-77
2023/09/23 06:01:43;;;;;;;0.73;0.43;;;;;;;;;;6255973;28;20120;-76
2023/09/23 06:04:45;;;;;;;0.73;0.22;;;;;;;;;;6258090;28;20087;-76
2023/09/23 06:07:46;;;;;;;1.00;0.20;;;;;;;;;;6254975;28;20053;-75
2023/09/23 06:10:48;;;;;;;2.00;0.38;;;;;;;;;;6254753;28;20045;-76
2023/09/23 06:13:52;;;;;;;0.75;0.20;;;;;;;;;;6254135;28;20357;-75
2023/09/23 06:16:53;;;;;;;0.98;0.20;;;;;;;;;;6265593;28;20060;-75
2023/09/23 06:19:57;;;;;;;0.80;0.40;;;;;;;;;;6280770;28;20056;-72
2023/09/23 06:22:58;;;;;;;2.33;0.32;;;;;;;;;;6281283;28;20257;-76
2023/09/23 06:26:02;;;;;;;0.93;0.60;;;;;;;;;;6280898;28;20312;-75
2023/09/23 06:29:05;;;;;;;1.65;0.38;;;;;;;;;;6281212;28;20064;-76
2023/09/23 06:32:07;;;;;;;0.95;0.30;;;;;;;;;;6282145;28;20057;-74
2023/09/23 06:35:10;;;;;;;0.82;0.43;;;;;;;;;;6281915;28;20063;-76
2023/09/23 06:38:12;;;;;;;0.98;0.30;;;;;;;;;;6255868;28;23035;-76
2023/09/23 06:41:14;;;;;;;1.45;0.50;;;;;;;;;;6252564;28;20057;-76
2023/09/23 06:44:18;;;;;;;7.93;0.75;;;;;;;;;;6256272;28;20116;-75
2023/09/23 06:47:20;;;;;;;1.98;0.63;;;;;;;;;;6255722;28;20072;-76
2023/09/23 06:50:22;;;;;;;0.95;0.30;;;;;;;;;;6255243;28;20079;-75
2023/09/23 06:53:23;;;;;;;1.85;0.50;;;;;;;;;;6253716;28;20061;-75
2023/09/23 06:56:25;;;;;;;1.20;0.50;;;;;;;;;;6255294;28;20049;-75
2023/09/23 06:59:28;;;;;;;2.13;0.63;;;;;;;;;;6251333;28;20383;-75
2023/09/23 07:02:30;;;;;;;1.85;0.85;;;;;;;;;;6264111;28;20103;-76
2023/09/23 07:05:34;;;;;;;3.83;2.40;;;;;;;;;;6275540;28;20333;-76
2023/09/23 07:08:36;;;;;;;;;;;;;;;;;;6276086;28;20110;-76
2023/09/23 07:11:38;;;;;;;2.90;0.80;;;;;;;;;;6280621;28;20116;-75
2023/09/23 07:14:42;;;;;;;1.95;0.80;;;;;;;;;;6269810;28;20120;-76
2023/09/23 07:17:44;;;;;;;2.70;0.65;;;;;;;;;;6250689;28;20049;-78
2023/09/23 07:20:45;;;;;;;3.85;0.70;;;;;;;;;;6252984;28;20053;-76
2023/09/23 07:23:47;;;;;;;3.85;0.82;;;;;;;;;;6249476;28;20238;-77
2023/09/23 07:26:49;;;;;;;1.95;0.77;;;;;;;;;;6228403;28;20058;-77
2023/09/23 07:29:52;;;;;;;2.95;0.90;;;;;;;;;;6228128;28;20073;-80
2023/09/23 07:32:54;;;;;;;1.60;0.50;;;;;;;;;;6227393;28;20183;-78
2023/09/23 07:35:56;;;;;;;1.85;0.50;;;;;;;;;;6228802;28;20054;-77
2023/09/23 07:38:58;;;;;;;1.30;0.52;;;;;;;;;;6231294;28;20242;-76
2023/09/23 07:42:00;;;;;;;3.30;0.75;;;;;;;;;;6240649;28;20065;-78
2023/09/23 07:45:03;;;;;;;2.78;0.50;;;;;;;;;;6252746;28;20060;-81
2023/09/23 07:48:07;;;;;;;2.15;0.68;;;;;;;;;;6251558;28;20053;-77
2023/09/23 07:51:12;;;;;;;3.13;0.70;;;;;;;;;;6252853;28;20053;-77
2023/09/23 07:54:14;;;;;;;4.00;0.70;;;;;;;;;;6251484;28;20091;-77
2023/09/23 07:57:16;;;;;;;2.83;0.70;;;;;;;;;;6252779;28;20096;-75
2023/09/23 08:00:21;;;;;;;1.55;0.70;;;;;;;;;;6221474;28;20419;-77
2023/09/23 08:03:26;;;;;;;3.70;0.63;;;;;;;;;;6226216;28;20050;-77
2023/09/23 08:06:28;;;;;;;5.65;1.17;;;;;;;;;;6253119;28;20045;-77
2023/09/23 08:09:30;;;;;;;5.75;0.88;;;;;;;;;;6251996;28;20084;-78
2023/09/23 08:12:34;;;;;;;3.47;0.80;;;;;;;;;;6230411;28;20042;-78
2023/09/23 08:15:47;;;;;;;4.32;1.02;;;;;;;;;;6247067;28;20065;-77
2023/09/23 08:18:49;;;;;;;3.90;1.10;;;;;;;;;;6246668;28;20046;-77
2023/09/23 08:22:07;;;;;;;3.78;1.10;;;;;;;;;;6235569;28;20041;-77
2023/09/23 08:25:10;;;;;;;4.20;1.23;;;;;;;;;;6229521;28;20060;-76
2023/09/23 08:28:13;;;;;;;4.13;0.88;;;;;;;;;;6247320;28;20392;-75
2023/09/23 08:31:24;;;;;;;;;;;;;;;;;;6223946;28;20061;-75
2023/09/23 08:34:30;;;;;;;4.47;1.20;;;;;;;;;;6247024;28;19917;-75
2023/09/23 08:37:32;;;;;;;4.70;1.05;;;;;;;;;;6245944;28;20103;-75
2023/09/23 08:40:38;;;;;;;6.03;1.27;;;;;;;;;;6247366;28;20045;-76
2023/09/23 08:43:41;;;;;;;7.78;1.30;;;;;;;;;;6240173;28;20049;-78
2023/09/23 08:47:02;;;;;;;6.30;1.05;;;;;;;;;;6236090;28;20301;-75
2023/09/23 08:50:06;;;;;;;5.53;1.23;;;;;;;;;;6234769;28;20100;-75
2023/09/23 08:53:12;;;;;;;4.10;1.02;;;;;;;;;;6247747;28;20061;-74
2023/09/23 08:56:14;;;;;;;6.30;1.20;;;;;;;;;;6244774;28;20052;-75
2023/09/23 08:59:17;;;;;;;6.03;1.52;;;;;;;;;;6234807;28;20177;-75
2023/09/23 09:02:28;;;;;;;6.17;1.67;;;;;;;;;;6244057;28;20059;-75
2023/09/23 09:05:38;;;;;;;3.17;1.20;;;;;;;;;;6247513;28;20329;-75
2023/09/23 09:08:40;;;;;;;4.07;1.55;;;;;;;;;;6246353;28;20042;-75
2023/09/23 09:11:42;;;;;;;5.65;1.20;;;;;;;;;;6243685;28;20073;-75
2023/09/23 09:14:49;;;;;;;5.77;1.17;;;;;;;;;;6231541;28;20099;-75
2023/09/23 09:17:52;;;;;;;3.85;1.02;;;;;;;;;;6272764;28;20052;-75
2023/09/23 09:20:54;;;;;;;;;;;;;;;;;;6278632;28;20060;-75
2023/09/23 09:23:56;;;;;;;3.97;1.40;;;;;;;;;;6275717;28;19987;-75
2023/09/23 09:26:57;;;;;;;4.18;1.30;;;;;;;;;;6277182;28;20060;-75
2023/09/23 09:29:59;;;;;;;4.20;1.10;;;;;;;;;;6276555;28;20063;-75
2023/09/23 09:33:05;;;;;;;3.83;1.20;;;;;;;;;;6277764;28;20286;-75
2023/09/23 09:36:08;;;;;;;4.30;1.30;;;;;;;;;;6278132;28;20349;-75
2023/09/23 09:39:12;;;;;;;3.92;1.00;;;;;;;;;;6276582;28;20049;-75
2023/09/23 09:42:18;;;;;;;2.35;1.00;;;;;;;;;;6277625;28;20041;-75
2023/09/23 09:45:20;;;;;;;3.33;1.13;;;;;;;;;;6275166;28;20045;-75
2023/09/23 09:48:25;;;;;;;5.10;0.90;;;;;;;;;;6277188;28;20045;-75
2023/09/23 09:51:27;;;;;;;6.05;1.30;;;;;;;;;;6275805;28;20084;-75
2023/09/23 09:54:31;;;;;;;4.85;1.17;;;;;;;;;;6276106;28;20120;-76
2023/09/23 09:57:32;;;;;;;5.43;1.33;;;;;;;;;;6275050;28;20057;-75
2023/09/23 10:00:43;;;;;;;2.60;0.95;;;;;;;;;;6263492;28;20049;-75
2023/09/23 10:03:49;;;;;;;5.00;0.95;;;;;;;;;;6252822;28;20057;-75
2023/09/23 10:06:54;;;;;;;4.90;1.40;;;;;;;;;;6253318;28;20045;-76
2023/09/23 10:09:59;;;;;;;4.10;1.25;;;;;;;;;;6250934;28;20057;-76
2023/09/23 10:13:08;;;;;;;4.47;1.17;;;;;;;;;;6252073;28;20124;-76
2023/09/23 10:16:13;;;;;;;2.45;0.77;;;;;;;;;;6252727;28;20144;-76
2023/09/23 10:19:19;;;;;;;7.22;1.80;;;;;;;;;;6252014;28;20054;-76
2023/09/23 10:22:21;;;;;;;8.25;1.40;;;;;;;;;;6251230;28;20104;-75
2023/09/23 10:25:22;;;;;;;3.85;1.10;;;;;;;;;;6251469;28;20099;-76
2023/09/23 10:28:26;;;;;;;5.30;1.00;;;;;;;;;;6250801;28;20041;-75
2023/09/23 10:31:28;;;;;;;6.13;1.20;;;;;;;;;;6257298;28;20061;-76
2023/09/23 10:34:33;;;;;;;5.50;1.40;;;;;;;;;;6254802;28;20116;-75
2023/09/23 10:37:35;;;;;;;4.60;1.17;;;;;;;;;;6256339;28;20049;-75
2023/09/23 10:40:37;;;;;;;4.93;0.90;;;;;;;;;;6256806;28;20068;-74
2023/09/23 10:43:39;;;;;;;4.63;1.10;;;;;;;;;;6255859;28;20049;-74
2023/09/23 10:46:41;;;;;;;5.70;1.10;;;;;;;;;;6255000;28;20707;-75
2023/09/23 10:49:44;;;;;;;4.78;1.35;;;;;;;;;;6255172;28;20342;-75
2023/09/23 10:52:46;;;;;;;7.18;1.40;;;;;;;;;;6254492;28;20042;-76
2023/09/23 10:55:49;;;;;;;6.37;1.10;;;;;;;;;;6255444;28;20065;-79
2023/09/23 10:58:51;;;;;;;4.70;1.45;;;;;;;;;;6254430;28;20357;-78
2023/09/23 11:01:55;;;;;;;4.43;1.80;;;;;;;;;;6256552;28;20298;-78
2023/09/23 11:04:58;;;;;;;5.20;1.08;;;;;;;;;;6253511;28;20057;-78
2023/09/23 11:08:01;;;;;;;4.63;1.35;;;;;;;;;;6254899;28;20269;-76
2023/09/23 11:11:03;;;;;;;2.40;1.42;;;;;;;;;;6256371;28;20079;-79
2023/09/23 11:14:12;;;;;;;5.43;1.65;;;;;;;;;;6257174;28;20361;-80
2023/09/23 11:17:25;;;;;;;5.28;1.30;;;;;;;;;;6260058;28;20061;-81
2023/09/23 11:20:32;;;;;;;4.20;1.30;;;;;;;;;;6278616;28;20045;-81
2023/09/23 11:23:34;;;;;;;4.57;1.40;;;;;;;;;;6260765;28;20061;-78
2023/09/23 11:26:39;;;;;;;5.97;1.97;;;;;;;;;;6269471;28;20394;-78
2023/09/23 11:29:41;;;;;;;5.45;1.95;;;;;;;;;;6279391;28;20284;-78
2023/09/23 11:32:43;;;;;;;6.35;1.92;;;;;;;;;;6280914;28;20049;-79
2023/09/23 11:35:46;;;;;;;3.90;1.60;;;;;;;;;;6282065;28;20045;-79
2023/09/23 11:38:48;;;;;;;;;;;;;;;;;;6280012;28;20056;-85
2023/09/23 11:41:57;;;;;;;6.30;1.40;;;;;;;;;;6280444;28;19988;-79
2023/09/23 11:44:59;;;;;;;2.30;0.70;;;;;;;;;;6259577;28;20096;-82
2023/09/23 11:48:03;;;;;;;2.67;0.98;;;;;;;;;;6252942;28;20077;-80
2023/09/23 11:51:06;;;;;;;1.83;0.82;;;;;;;;;;6274871;28;20057;-76
2023/09/23 11:54:10;;;;;;;2.25;0.80;;;;;;;;;;6275341;28;20061;-77
2023/09/23 11:57:12;;;;;;;2.55;0.73;;;;;;;;;;6275705;28;20060;-76
2023/09/23 12:00:30;;;;;;;2.10;0.77;;;;;;;;;;6278869;28;20052;-77
2023/09/23 12:03:32;;;;;;;3.53;0.70;;;;;;;;;;6275965;28;20053;-76
2023/09/23 12:06:36;;;;;;;2.47;0.90;;;;;;;;;;6278643;28;20056;-78
2023/09/23 12:09:39;;;;;;;1.77;0.73;;;;;;;;;;6276692;28;20056;-78
2023/09/23 12:12:42;;;;;;;1.55;0.68;;;;;;;;;;6262303;28;20088;-79
2023/09/23 12:15:44;;;;;;;4.20;0.80;;;;;;;;;;6253021;28;20318;-80
2023/09/23 12:18:48;;;;;;;4.70;1.00;;;;;;;;;;6256537;28;20064;-77
2023/09/23 12:21:51;;;;;;;3.95;1.00;;;;;;;;;;6278870;28;20048;-80
2023/09/23 12:24:53;;;;;;;3.55;1.13;;;;;;;;;;6277385;28;20291;-79
2023/09/23 12:27:54;;;;;;;4.38;0.95;;;;;;;;;;6277415;28;20116;-78
2023/09/23 12:30:56;;;;;;;3.25;1.02;;;;;;;;;;6278715;28;20072;-78
2023/09/23 12:33:58;;;;;;;4.75;1.20;;;;;;;;;;6276980;28;20381;-78
2023/09/23 12:37:01;;;;;;;8.93;2.60;;;;;;;;;;6280089;28;20121;-79
2023/09/23 12:40:06;;;;;;;2.72;1.02;;;;;;;;;;6276951;28;20044;-80
2023/09/23 12:43:08;;;;;;;3.08;1.13;;;;;;;;;;6273237;28;20085;-80
2023/09/23 12:46:10;;;;;;;10.07;1.60;;;;;;;;;;6277350;28;20116;-81
2023/09/23 12:49:12;;;;;;;14.77;2.70;;;;;;;;;;6276594;28;20060;-78
2023/09/23 12:52:15;;;;;;;7.63;1.67;;;;;;;;;;6274470;28;20072;-80
2023/09/23 12:55:17;;;;;;;8.20;2.03;;;;;;;;;;6275478;28;20124;-80
2023/09/23 12:58:19;;;;;;;3.75;1.20;;;;;;;;;;6272186;28;20139;-80
2023/09/23 13:01:21;;;;;;;5.13;1.45;;;;;;;;;;6277229;28;20056;-78
2023/09/23 13:04:25;;;;;;;4.78;1.40;;;;;;;;;;6266165;28;20060;-79
2023/09/23 13:07:33;;;;;;;5.85;1.20;;;;;;;;;;6272981;28;20098;-79
2023/09/23 13:10:35;;;;;;;5.50;1.25;;;;;;;;;;6263256;28;20114;-79
2023/09/23 13:13:40;;;;;;;2.90;0.90;;;;;;;;;;6271200;28;25451;-78
2023/09/23 13:16:42;;;;;;;2.85;0.73;;;;;;;;;;6274746;28;20068;-78
2023/09/23 13:19:44;;;;;;;1.77;0.57;;;;;;;;;;6275302;28;20061;-79
2023/09/23 13:23:36;;;;;;;2.03;0.80;;;;;;;;;;6276908;28;20068;-78
2023/09/23 13:26:37;;;;;;;2.30;0.50;;;;;;;;;;6272603;28;20060;-79
2023/09/23 13:29:39;;;;;;;1.10;0.70;;;;;;;;;;6277888;28;20095;-81
2023/09/23 13:32:41;;;;;;;1.95;1.00;;;;;;;;;;6273402;28;20040;-76
2023/09/23 13:35:44;;;;;;;2.00;0.90;;;;;;;;;;6255153;28;20045;-79
2023/09/23 13:38:50;;;;;;;1.20;0.60;;;;;;;;;;6262245;28;20337;-79
2023/09/23 13:41:53;;;;;;;1.70;0.75;;;;;;;;;;6217941;28;20048;-77
2023/09/23 13:44:56;;;;;;;2.28;1.00;;;;;;;;;;6249961;28;20061;-78
2023/09/23 13:47:58;;;;;;;2.45;0.65;;;;;;;;;;6250159;28;20246;-80
2023/09/23 13:51:00;;;;;;;2.53;0.98;;;;;;;;;;6254699;28;20114;-83
2023/09/23 13:54:04;;;;;;;2.42;0.98;;;;;;;;;;6248426;28;20415;-78
2023/09/23 13:57:06;;;;;;;2.53;1.15;;;;;;;;;;6249425;28;20226;-78
2023/09/23 14:00:08;;;;;;;3.08;1.08;;;;;;;;;;6250169;28;20064;-77
2023/09/23 14:03:10;;;;;;;1.80;0.90;;;;;;;;;;6250597;28;20060;-80
2023/09/23 14:06:13;;;;;;;3.65;1.17;;;;;;;;;;6258500;28;20509;-75
2023/09/23 14:09:16;;;;;;;2.00;0.90;;;;;;;;;;6256384;28;20248;-75
2023/09/23 14:12:19;;;;;;;4.07;1.00;;;;;;;;;;6277378;28;20051;-75
2023/09/23 14:15:21;;;;;;;143.88;8.52;;;;;;;;;;6268248;28;20167;-74
2023/09/23 14:18:26;;;;;;;84.47;6.20;;;;;;;;;;6280938;28;20041;-73
2023/09/23 14:21:34;;;;;;;6.30;1.50;;;;;;;;;;6275624;28;20048;-73
2023/09/23 14:24:37;;;;;;;2.83;0.85;;;;;;;;;;6268359;28;20177;-75
2023/09/23 14:27:39;;;;;;;4.20;1.23;;;;;;;;;;6269232;28;20249;-75
2023/09/23 14:30:40;;;;;;;3.15;1.42;;;;;;;;;;6281393;28;20337;-73
2023/09/23 14:33:42;;;;;;;4.53;1.67;;;;;;;;;;6276335;28;20040;-74
2023/09/23 14:36:44;;;;;;;3.92;1.45;;;;;;;;;;6272572;28;20079;-80
2023/09/23 14:39:48;;;;;;;2.47;1.13;;;;;;;;;;6274828;28;20057;-79
2023/09/23 14:42:49;;;;;;;;;;;;;;;;;;6276566;28;20111;-79
2023/09/23 14:45:52;;;;;;;2.22;1.05;;;;;;;;;;6274564;28;19925;-79
2023/09/23 14:48:54;;;;;;;2.42;1.10;;;;;;;;;;6276130;28;20120;-79
2023/09/23 14:51:55;;;;;;;47.58;28.13;;;;;;;;;;6252853;28;20088;-77
2023/09/23 14:54:59;;;;;;;248.48;141.50;;;;;;;;;;6259135;28;20061;-75
2023/09/23 14:58:05;;;;;;;9.82;5.60;;;;;;;;;;6254182;28;20049;-76
2023/09/23 15:01:08;;;;;;;2.10;1.02;;;;;;;;;;6255471;28;20049;-77
2023/09/23 15:04:10;;;;;;;2.60;0.70;;;;;;;;;;6255816;28;20072;-77
2023/09/23 15:07:11;;;;;;;1.83;0.88;;;;;;;;;;6255511;28;20120;-75
2023/09/23 15:10:15;;;;;;;1.95;1.23;;;;;;;;;;6255326;28;20054;-78
2023/09/23 15:13:16;;;;;;;3.20;0.63;;;;;;;;;;6265386;28;20080;-79
2023/09/23 15:16:19;;;;;;;1.52;0.98;;;;;;;;;;6260672;28;20040;-77
2023/09/23 15:19:21;;;;;;;1.60;0.80;;;;;;;;;;6269844;28;20046;-79
2023/09/23 15:22:23;;;;;;;3.95;0.93;;;;;;;;;;6267995;28;20057;-78
2023/09/23 15:25:26;;;;;;;2.70;0.80;;;;;;;;;;6259932;28;20329;-78
2023/09/23 15:28:28;;;;;;;2.40;0.77;;;;;;;;;;6278307;28;20057;-78
2023/09/23 15:31:29;;;;;;;2.30;1.00;;;;;;;;;;6272857;28;20801;-78
2023/09/23 15:34:31;;;;;;;2.85;1.00;;;;;;;;;;6269956;28;20091;-78
2023/09/23 15:38:39;;;;;;;2.15;1.38;;;;;;;;;;6268893;28;20068;-80
2023/09/23 15:41:42;;;;;;;2.63;1.50;;;;;;;;;;6267489;28;20110;-77
2023/09/23 15:44:44;;;;;;;4.35;1.90;;;;;;;;;;6269094;28;20487;-77
2023/09/23 15:47:46;;;;;;;2.45;1.10;;;;;;;;;;6269809;28;20064;-77
2023/09/23 15:50:49;;;;;;;1.45;1.00;;;;;;;;;;6277950;28;20245;-78
2023/09/23 15:53:51;;;;;;;2.15;1.08;;;;;;;;;;6274290;28;20044;-78
2023/09/23 15:56:54;;;;;;;5.68;1.30;;;;;;;;;;6275227;28;20053;-78
2023/09/23 15:59:57;;;;;;;2.08;0.90;;;;;;;;;;6276107;28;20064;-77
2023/09/23 16:02:58;;;;;;;2.83;1.27;;;;;;;;;;6274357;28;20368;-77
2023/09/23 16:06:00;;;;;;;2.00;1.15;;;;;;;;;;6268775;28;20064;-78
2023/09/23 16:09:03;;;;;;;2.85;1.10;;;;;;;;;;6262262;28;20053;-78
2023/09/23 16:12:07;;;;;;;5.45;0.82;;;;;;;;;;6254663;28;20052;-80
2023/09/23 16:15:10;;;;;;;2.22;1.30;;;;;;;;;;6264691;28;20091;-74
2023/09/23 16:18:12;;;;;;;2.25;1.20;;;;;;;;;;6253334;28;20128;-76
2023/09/23 16:21:14;;;;;;;2.37;1.30;;;;;;;;;;6250480;28;20048;-76
2023/09/23 16:24:17;;;;;;;3.60;1.35;;;;;;;;;;6252714;28;20499;-78
2023/09/23 16:27:21;;;;;;;3.53;1.35;;;;;;;;;;6253049;28;20078;-79
2023/09/23 16:30:23;;;;;;;3.10;0.98;;;;;;;;;;6250858;28;20057;-77
2023/09/23 16:33:25;;;;;;;2.10;1.00;;;;;;;;;;6253521;28;20069;-78
2023/09/23 16:36:27;;;;;;;3.45;1.70;;;;;;;;;;6252594;28;20057;-78
2023/09/23 16:39:28;;;;;;;3.65;1.23;;;;;;;;;;6257795;28;20053;-78
2023/09/23 16:42:32;;;;;;;2.10;0.85;;;;;;;;;;6255078;28;20061;-78
2023/09/23 16:45:33;;;;;;;;;;;;;;;;;;6250237;28;20045;-77
2023/09/23 16:48:35;;;;;;;2.53;0.90;;;;;;;;;;6255260;28;19925;-77
2023/09/23 16:51:37;;;;;;;1.23;0.80;;;;;;;;;;6253132;28;20059;-75
2023/09/23 16:54:42;;;;;;;2.88;1.05;;;;;;;;;;6252377;28;20059;-77
2023/09/23 16:57:45;;;;;;;3.40;1.10;;;;;;;;;;6251268;28;20049;-80
2023/09/23 17:00:47;;;;;;;2.33;1.23;;;;;;;;;;6254778;28;20045;-80
2023/09/23 17:03:49;;;;;;;8.98;1.58;;;;;;;;;;6252579;28;20065;-78
2023/09/23 17:06:51;;;;;;;4.22;1.40;;;;;;;;;;6253072;28;20041;-79
2023/09/23 17:09:53;;;;;;;3.00;1.25;;;;;;;;;;6252104;28;20060;-80
2023/09/23 17:12:57;;;;;;;2.92;1.33;;;;;;;;;;6252622;28;20053;-79
2023/09/23 17:15:58;;;;;;;2.25;0.90;;;;;;;;;;6265463;28;20270;-80
2023/09/23 17:19:02;;;;;;;3.10;1.30;;;;;;;;;;6253330;28;20080;-80
2023/09/23 17:22:04;;;;;;;3.45;1.48;;;;;;;;;;6252639;28;20057;-80
2023/09/23 17:25:06;;;;;;;3.88;1.33;;;;;;;;;;6254612;28;20310;-79
2023/09/23 17:28:10;;;;;;;4.20;1.55;;;;;;;;;;6274598;28;20120;-79
2023/09/23 17:31:27;;;;;;;6.07;1.42;;;;;;;;;;6276660;28;20048;-81
2023/09/23 17:34:28;;;;;;;3.72;1.60;;;;;;;;;;6277320;28;20053;-81
2023/09/23 17:37:30;;;;;;;6.65;1.50;;;;;;;;;;6275542;28;20090;-79
2023/09/23 17:40:32;;;;;;;2.78;1.50;;;;;;;;;;6273398;28;20068;-79
2023/09/23 17:43:36;;;;;;;3.60;1.40;;;;;;;;;;6260086;28;20060;-80
2023/09/23 17:46:42;;;;;;;4.28;1.33;;;;;;;;;;6257720;28;20053;-79
2023/09/23 17:49:51;;;;;;;2.75;1.10;;;;;;;;;;6255939;28;20049;-79
2023/09/23 17:52:56;;;;;;;3.63;1.20;;;;;;;;;;6257311;28;20120;-80
2023/09/23 17:55:59;;;;;;;3.08;1.50;;;;;;;;;;6257061;28;20073;-79
2023/09/23 17:59:03;;;;;;;5.43;1.33;;;;;;;;;;6255507;28;20067;-79
2023/09/23 18:02:05;;;;;;;3.28;1.27;;;;;;;;;;6253958;28;20099;-82
2023/09/23 18:05:08;;;;;;;3.35;1.73;;;;;;;;;;6265791;28;20060;-81
2023/09/23 18:08:41;;;;;;;2.55;1.10;;;;;;;;;;6257484;28;20053;-80
2023/09/23 18:11:46;;;;;;;5.18;1.80;;;;;;;;;;6243814;28;20057;-81
2023/09/23 18:14:51;;;;;;;4.07;1.73;;;;;;;;;;6256324;28;20053;-84
2023/09/23 18:17:53;;;;;;;2.70;1.48;;;;;;;;;;6254673;28;20057;-78
2023/09/23 18:21:05;;;;;;;6.20;1.70;;;;;;;;;;6253407;28;20061;-78
2023/09/23 18:24:08;;;;;;;3.75;1.48;;;;;;;;;;6268121;28;20503;-80